Valor — WDD8691 — position and weather

sailwx.info

Track history (hours):
 
Tides and Currents Weather Stations Pressure Air Temp Water Temp Dewpoint Dewpoint Depression Visibility Wind Speed Wind Dir Waves Ship Positions

Valor

Owner: Crowley Marine Services, Seattle, WA. More information available from US FCC via Universal Licensing System and Coast Guard Vessel Documentation Center.

Last reported at 2015-Jul-05 16:07 UTC. Time now 2015-Jul-05 19:20 UTC.
Position N 38°04' W 122°14'.

Length 8 m; draft 5.5 m.

Type: Tug. MMSI: 367301480.

Date/timePositionNaut miles runAvg speedWind from/ knotsBaromVisibWave heightAir tempDewpointWater temp
2015-Jul-05 16:07N 38°04' W 122°14'17 5.5
2015-Jul-05 13:03N 38°02' W 121°52'14 4.1
2015-Jul-05 09:33N 38°03' W 122°11'1110.8
2015-Jul-05 08:33N 38°00' W 122°24'1110.7
2015-Jul-05 07:33N 37°50' W 122°24'2 1.7
2015-Jul-05 06:33N 37°48' W 122°24'0 0.0
2015-Jul-05 05:33N 37°48' W 122°24'0 0.0
2015-Jul-05 04:33N 37°48' W 122°24'0 0.0
2015-Jul-05 03:33N 37°48' W 122°24'0 0.0
2015-Jul-05 02:33N 37°48' W 122°24'0 0.0
2015-Jul-05 01:33N 37°48' W 122°24'0 0.0
2015-Jul-05 00:33N 37°48' W 122°24'0 0.3
2015-Jul-04 23:33N 37°48' W 122°24'6 5.8
2015-Jul-04 22:33N 37°49' W 122°31'6 5.9
2015-Jul-04 21:33N 37°51' W 122°24'4 4.3
2015-Jul-04 20:33N 37°55' W 122°25'0 0.2
2015-Jul-04 19:33N 37°55' W 122°25'0 0.1
2015-Jul-04 18:33N 37°56' W 122°25'6 5.9
2015-Jul-04 17:33N 37°50' W 122°22'3 2.5
2015-Jul-04 16:33N 37°49' W 122°19'2 2.4
2015-Jul-04 15:33N 37°47' W 122°22'0 0.1
2015-Jul-04 14:33N 37°47' W 122°22'3 3.3
2015-Jul-04 13:33N 37°49' W 122°19'0 0.0
2015-Jul-04 12:33N 37°49' W 122°19'0 0.0
2015-Jul-04 11:33N 37°49' W 122°19'0 0.0
2015-Jul-04 10:33N 37°49' W 122°19'0 0.0
2015-Jul-04 09:33N 37°49' W 122°19'3 2.6
2015-Jul-04 08:33N 37°48' W 122°21'1 1.0
2015-Jul-04 07:33N 37°47' W 122°22'2 1.8
2015-Jul-04 06:33N 37°46' W 122°20'4 4.4
2015-Jul-04 05:33N 37°49' W 122°24'6 6.2
2015-Jul-04 04:33N 37°56' W 122°25'3 3.4
2015-Jul-04 03:33N 37°52' W 122°24'4 3.5
2015-Jul-04 02:23N 37°48' W 122°24'0 0.1
2015-Jul-04 01:33N 37°48' W 122°24'0 0.0
2015-Jul-04 00:33N 37°48' W 122°24'2 1.7
2015-Jul-03 23:33N 37°49' W 122°26'4 4.2
2015-Jul-03 22:33N 37°49' W 122°31'6 5.9
2015-Jul-03 21:33N 37°53' W 122°26'7 7.3
2015-Jul-03 20:33N 38°00' W 122°24'13 3.2
2015-Jul-03 16:28N 38°02' W 122°08'0 0.0
2015-Jul-03 13:28N 38°02' W 122°08'0 0.0
2015-Jul-03 10:33N 38°02' W 122°08'0 0.0
2015-Jul-03 06:21N 38°02' W 122°08'0 0.1
2015-Jul-03 05:23N 38°02' W 122°08'1 0.8
2015-Jul-03 04:04N 38°02' W 122°09'1 0.3
2015-Jul-02 23:10N 38°03' W 122°11'3 1.8
2015-Jul-02 21:22N 38°04' W 122°15'5 6.6
2015-Jul-02 20:33N 38°02' W 122°08'2 0.5
2015-Jul-02 17:16N 38°02' W 122°10'4 0.8
2015-Jul-02 12:30N 38°03' W 122°15'4 3.5
2015-Jul-02 11:29N 38°03' W 122°19'8 8.7
2015-Jul-02 10:33N 37°57' W 122°26'2 1.8
2015-Jul-02 09:33N 37°55' W 122°25'2 1.8
2015-Jul-02 08:33N 37°54' W 122°25'2 1.7
2015-Jul-02 07:30N 37°55' W 122°25'0 0.1
2015-Jul-02 06:33N 37°55' W 122°25'0 0.0
2015-Jul-02 05:33N 37°55' W 122°25'0 0.0
2015-Jul-02 04:33N 37°55' W 122°25'2 2.3
2015-Jul-02 03:33N 37°53' W 122°25'6 5.9
2015-Jul-02 02:33N 37°49' W 122°19'0 0.3
2015-Jul-02 01:33N 37°49' W 122°19'0 0.4
2015-Jul-02 00:33N 37°49' W 122°19'0 0.0
2015-Jul-01 23:33N 37°49' W 122°19'0 0.0
2015-Jul-01 22:33N 37°49' W 122°19'4 3.8
2015-Jul-01 21:33N 37°46' W 122°22'7 6.9
2015-Jul-01 20:33N 37°49' W 122°30'2 2.4
2015-Jul-01 19:33N 37°49' W 122°27'6 6.4
2015-Jul-01 18:33N 37°49' W 122°19'0 0.1
2015-Jul-01 17:33N 37°49' W 122°19'0 0.0
2015-Jul-01 16:33N 37°49' W 122°19'0 0.0
2015-Jul-01 15:33N 37°49' W 122°19'0 0.0
2015-Jul-01 14:33N 37°49' W 122°19'0 0.0
2015-Jul-01 13:33N 37°49' W 122°19'0 0.0
2015-Jul-01 12:33N 37°49' W 122°19'2 1.9
2015-Jul-01 11:33N 37°49' W 122°21'7 7.4
2015-Jul-01 10:33N 37°55' W 122°25'1 1.2
2015-Jul-01 09:33N 37°54' W 122°24'2 1.7
2015-Jul-01 08:33N 37°55' W 122°22'0 0.0
2015-Jul-01 07:33N 37°55' W 122°22'0 0.0
2015-Jul-01 06:33N 37°55' W 122°22'0 0.0
2015-Jul-01 05:33N 37°55' W 122°22'0 0.0
2015-Jul-01 04:33N 37°55' W 122°22'2 2.3
2015-Jul-01 03:33N 37°55' W 122°25'0 0.3
2015-Jul-01 02:33N 37°55' W 122°25'7 7.3
2015-Jul-01 01:33N 37°48' W 122°22'1 1.4
2015-Jul-01 00:33N 37°48' W 122°21'2 1.5
2015-Jun-30 23:33N 37°48' W 122°19'0 0.1
2015-Jun-30 22:33N 37°48' W 122°19'6 6.5
2015-Jun-30 21:33N 37°53' W 122°24'3 3.0
2015-Jun-30 20:33N 37°55' W 122°22'0 0.0
2015-Jun-30 19:33N 37°55' W 122°22'0 0.0
2015-Jun-30 18:33N 37°55' W 122°22'3 2.5
2015-Jun-30 17:33N 37°55' W 122°25'2 2.5
2015-Jun-30 16:33N 37°55' W 122°22'0 0.0
2015-Jun-30 15:33N 37°55' W 122°22'0 0.0
2015-Jun-30 14:33N 37°55' W 122°22'0 0.0
2015-Jun-30 13:33N 37°55' W 122°22'0 0.0
2015-Jun-30 12:33N 37°55' W 122°22'0 0.0
2015-Jun-30 11:33N 37°55' W 122°22'0 0.2
2015-Jun-30 10:34N 37°55' W 122°22'2 2.1
2015-Jun-30 09:33N 37°55' W 122°24'1 1.0
2015-Jun-30 08:33N 37°54' W 122°23'1 1.3
2015-Jun-30 07:33N 37°55' W 122°25'8 7.4
2015-Jun-30 06:31N 38°02' W 122°21'4 4.1
2015-Jun-30 05:33N 38°03' W 122°16'1 1.1
2015-Jun-30 04:33N 38°03' W 122°17'1 1.3
2015-Jun-30 03:33N 38°03' W 122°16'8 7.6
2015-Jun-30 02:33N 38°00' W 122°24'6 5.9
2015-Jun-30 01:33N 37°55' W 122°22'1 0.7
2015-Jun-30 00:33N 37°54' W 122°23'2 1.8
2015-Jun-29 23:33N 37°55' W 122°25'2 2.4
2015-Jun-29 22:33N 37°55' W 122°22'4 3.9
2015-Jun-29 21:33N 37°57' W 122°26'6 1.4
2015-Jun-29 17:23N 38°02' W 122°22'810.2
2015-Jun-29 16:34N 37°54' W 122°26'9 9.4
2015-Jun-29 15:33N 37°46' W 122°21'1 0.9
2015-Jun-29 14:33N 37°45' W 122°20'5 4.7
2015-Jun-29 13:33N 37°49' W 122°19'0 0.0
2015-Jun-29 12:33N 37°49' W 122°19'0 0.0
2015-Jun-29 11:33N 37°49' W 122°19'0 0.0
2015-Jun-29 10:33N 37°49' W 122°19'0 0.0
2015-Jun-29 09:33N 37°49' W 122°19'0 0.0
2015-Jun-29 08:33N 37°49' W 122°19'1 0.8
2015-Jun-29 07:33N 37°49' W 122°20'1 0.5
2015-Jun-29 06:33N 37°49' W 122°19'0 0.3
2015-Jun-29 05:33N 37°49' W 122°19'1 0.5
2015-Jun-29 04:33N 37°49' W 122°19'4 4.1
2015-Jun-29 03:33N 37°45' W 122°22'1 0.7
2015-Jun-29 02:33N 37°45' W 122°21'5 4.6
2015-Jun-29 01:33N 37°49' W 122°19'0 0.0
2015-Jun-29 00:33N 37°49' W 122°19'0 0.0
2015-Jun-28 23:33N 37°49' W 122°19'0 0.0
2015-Jun-28 22:33N 37°49' W 122°19'0 0.0
2015-Jun-28 21:33N 37°49' W 122°19'0 0.0
2015-Jun-28 20:33N 37°49' W 122°19'2 1.5
2015-Jun-28 19:33N 37°49' W 122°20'3 2.5
2015-Jun-28 18:33N 37°48' W 122°17'2 2.5
2015-Jun-28 17:33N 37°48' W 122°20'3 2.7
2015-Jun-28 16:33N 37°45' W 122°21'7 7.3
2015-Jun-28 15:33N 37°52' W 122°25'3 3.3
2015-Jun-28 14:33N 37°56' W 122°25'0 0.1
2015-Jun-28 13:33N 37°56' W 122°25'8 7.7
2015-Jun-28 12:33N 37°49' W 122°21'2 2.0
2015-Jun-28 11:33N 37°49' W 122°19'0 0.0
2015-Jun-28 10:33N 37°49' W 122°19'0 0.0
2015-Jun-28 09:33N 37°49' W 122°19'0 0.0
2015-Jun-28 08:33N 37°49' W 122°19'0 0.0
2015-Jun-28 07:33N 37°49' W 122°19'0 0.0
2015-Jun-28 06:33N 37°49' W 122°19'0 0.0
2015-Jun-28 05:33N 37°49' W 122°19'0 0.0
2015-Jun-28 04:33N 37°49' W 122°19'1 0.9
2015-Jun-28 03:34N 37°49' W 122°19'2 1.6
2015-Jun-28 02:33N 37°48' W 122°21'2 1.6
2015-Jun-28 01:33N 37°49' W 122°19'0 0.1
2015-Jun-28 00:33N 37°49' W 122°20'0 0.2
2015-Jun-27 23:33N 37°49' W 122°19'1 0.9
2015-Jun-27 22:33N 37°48' W 122°19'1 1.3
2015-Jun-27 21:33N 37°48' W 122°21'2 1.5
2015-Jun-27 20:34N 37°48' W 122°22'1 1.2
2015-Jun-27 19:33N 37°48' W 122°24'4 4.4
2015-Jun-27 18:33N 37°49' W 122°29'4 4.0
2015-Jun-27 17:34N 37°51' W 122°25'7 7.5
2015-Jun-27 16:33N 37°58' W 122°26'9 8.7
2015-Jun-27 15:33N 38°03' W 122°17'8 5.3
2015-Jun-27 14:07N 38°02' W 122°08'0 0.0
2015-Jun-27 04:19N 38°02' W 122°08'0 0.4
2015-Jun-27 03:27N 38°02' W 122°08'4 4.5
2015-Jun-27 02:28N 38°04' W 122°13'8 8.3
2015-Jun-27 01:33N 38°02' W 122°22'9 9.0
2015-Jun-27 00:33N 37°53' W 122°26'6 6.3
2015-Jun-26 23:34N 37°48' W 122°30'4 3.5
2015-Jun-26 22:34N 37°49' W 122°26'5 5.5
2015-Jun-26 21:34N 37°49' W 122°19'0 0.0
2015-Jun-26 20:33N 37°49' W 122°19'0 0.0
2015-Jun-26 19:34N 37°49' W 122°19'0 0.0
2015-Jun-26 18:33N 37°49' W 122°19'0 0.0
2015-Jun-26 17:34N 37°49' W 122°19'0 0.0
2015-Jun-26 16:34N 37°49' W 122°19'0 0.0
2015-Jun-26 15:33N 37°49' W 122°19'3 2.7
2015-Jun-26 14:34N 37°50' W 122°22'6 6.0
2015-Jun-26 13:33N 37°56' W 122°25'0 0.0
2015-Jun-26 12:33N 37°56' W 122°25'8 7.8
2015-Jun-26 11:33N 37°48' W 122°21'2 1.9
2015-Jun-26 10:34N 37°49' W 122°19'0 0.0
2015-Jun-26 09:33N 37°49' W 122°19'0 0.0
2015-Jun-26 08:34N 37°49' W 122°19'0 0.0
2015-Jun-26 07:34N 37°49' W 122°19'0 0.0
2015-Jun-26 06:34N 37°49' W 122°19'0 0.0
2015-Jun-26 05:34N 37°49' W 122°19'0 0.0
2015-Jun-26 04:34N 37°49' W 122°19'0 0.0
2015-Jun-26 03:34N 37°49' W 122°19'0 0.0
2015-Jun-26 02:34N 37°49' W 122°19'4 4.5
2015-Jun-26 01:34N 37°45' W 122°21'7 7.0
2015-Jun-26 00:33N 37°49' W 122°29'1 1.5
2015-Jun-25 23:34N 37°49' W 122°27'6 6.4
2015-Jun-25 22:33N 37°49' W 122°19'0 0.0
2015-Jun-25 21:34N 37°49' W 122°19'0 0.0
2015-Jun-25 20:33N 37°49' W 122°19'0 0.0
2015-Jun-25 19:33N 37°49' W 122°19'0 0.0
2015-Jun-25 18:34N 37°49' W 122°19'0 0.0
2015-Jun-25 17:34N 37°49' W 122°19'0 0.0
2015-Jun-25 16:34N 37°49' W 122°19'  
Track history (hours):
 
Tides and Currents Weather Stations Pressure Air Temp Water Temp Dewpoint Dewpoint Depression Visibility Wind Speed Wind Dir Waves Ship Positions

Valor

Owner: Crowley Marine Services, Seattle, WA. More information available from US FCC via Universal Licensing System and Coast Guard Vessel Documentation Center.

Last reported at 2015-Jul-05 16:07 UTC. Time now 2015-Jul-05 19:20 UTC.
Position N 38°04' W 122°14'.

Length 8 m; draft 5.5 m.

Type: Tug. MMSI: 367301480.

Date/timePositionNaut miles runAvg speedWind from/ knotsBaromVisibWave heightAir tempDewpointWater temp
2015-Jul-05 16:07N 38°04' W 122°14'17 5.5
2015-Jul-05 13:03N 38°02' W 121°52'14 4.1
2015-Jul-05 09:33N 38°03' W 122°11'1110.8
2015-Jul-05 08:33N 38°00' W 122°24'1110.7
2015-Jul-05 07:33N 37°50' W 122°24'2 1.7
2015-Jul-05 06:33N 37°48' W 122°24'0 0.0
2015-Jul-05 05:33N 37°48' W 122°24'0 0.0
2015-Jul-05 04:33N 37°48' W 122°24'0 0.0
2015-Jul-05 03:33N 37°48' W 122°24'0 0.0
2015-Jul-05 02:33N 37°48' W 122°24'0 0.0
2015-Jul-05 01:33N 37°48' W 122°24'0 0.0
2015-Jul-05 00:33N 37°48' W 122°24'0 0.3
2015-Jul-04 23:33N 37°48' W 122°24'6 5.8
2015-Jul-04 22:33N 37°49' W 122°31'6 5.9
2015-Jul-04 21:33N 37°51' W 122°24'4 4.3
2015-Jul-04 20:33N 37°55' W 122°25'0 0.2
2015-Jul-04 19:33N 37°55' W 122°25'0 0.1
2015-Jul-04 18:33N 37°56' W 122°25'6 5.9
2015-Jul-04 17:33N 37°50' W 122°22'3 2.5
2015-Jul-04 16:33N 37°49' W 122°19'2 2.4
2015-Jul-04 15:33N 37°47' W 122°22'0 0.1
2015-Jul-04 14:33N 37°47' W 122°22'3 3.3
2015-Jul-04 13:33N 37°49' W 122°19'0 0.0
2015-Jul-04 12:33N 37°49' W 122°19'0 0.0
2015-Jul-04 11:33N 37°49' W 122°19'0 0.0
2015-Jul-04 10:33N 37°49' W 122°19'0 0.0
2015-Jul-04 09:33N 37°49' W 122°19'3 2.6
2015-Jul-04 08:33N 37°48' W 122°21'1 1.0
2015-Jul-04 07:33N 37°47' W 122°22'2 1.8
2015-Jul-04 06:33N 37°46' W 122°20'4 4.4
2015-Jul-04 05:33N 37°49' W 122°24'6 6.2
2015-Jul-04 04:33N 37°56' W 122°25'3 3.4
2015-Jul-04 03:33N 37°52' W 122°24'4 3.5
2015-Jul-04 02:23N 37°48' W 122°24'0 0.1
2015-Jul-04 01:33N 37°48' W 122°24'0 0.0
2015-Jul-04 00:33N 37°48' W 122°24'2 1.7
2015-Jul-03 23:33N 37°49' W 122°26'4 4.2
2015-Jul-03 22:33N 37°49' W 122°31'6 5.9
2015-Jul-03 21:33N 37°53' W 122°26'7 7.3
2015-Jul-03 20:33N 38°00' W 122°24'13 3.2
2015-Jul-03 16:28N 38°02' W 122°08'0 0.0
2015-Jul-03 13:28N 38°02' W 122°08'0 0.0
2015-Jul-03 10:33N 38°02' W 122°08'0 0.0
2015-Jul-03 06:21N 38°02' W 122°08'0 0.1
2015-Jul-03 05:23N 38°02' W 122°08'1 0.8
2015-Jul-03 04:04N 38°02' W 122°09'1 0.3
2015-Jul-02 23:10N 38°03' W 122°11'3 1.8
2015-Jul-02 21:22N 38°04' W 122°15'5 6.6
2015-Jul-02 20:33N 38°02' W 122°08'2 0.5
2015-Jul-02 17:16N 38°02' W 122°10'4 0.8
2015-Jul-02 12:30N 38°03' W 122°15'4 3.5
2015-Jul-02 11:29N 38°03' W 122°19'8 8.7
2015-Jul-02 10:33N 37°57' W 122°26'2 1.8
2015-Jul-02 09:33N 37°55' W 122°25'2 1.8
2015-Jul-02 08:33N 37°54' W 122°25'2 1.7
2015-Jul-02 07:30N 37°55' W 122°25'0 0.1
2015-Jul-02 06:33N 37°55' W 122°25'0 0.0
2015-Jul-02 05:33N 37°55' W 122°25'0 0.0
2015-Jul-02 04:33N 37°55' W 122°25'2 2.3
2015-Jul-02 03:33N 37°53' W 122°25'6 5.9
2015-Jul-02 02:33N 37°49' W 122°19'0 0.3
2015-Jul-02 01:33N 37°49' W 122°19'0 0.4
2015-Jul-02 00:33N 37°49' W 122°19'0 0.0
2015-Jul-01 23:33N 37°49' W 122°19'0 0.0
2015-Jul-01 22:33N 37°49' W 122°19'4 3.8
2015-Jul-01 21:33N 37°46' W 122°22'7 6.9
2015-Jul-01 20:33N 37°49' W 122°30'2 2.4
2015-Jul-01 19:33N 37°49' W 122°27'6 6.4
2015-Jul-01 18:33N 37°49' W 122°19'0 0.1
2015-Jul-01 17:33N 37°49' W 122°19'0 0.0
2015-Jul-01 16:33N 37°49' W 122°19'0 0.0
2015-Jul-01 15:33N 37°49' W 122°19'0 0.0
2015-Jul-01 14:33N 37°49' W 122°19'0 0.0
2015-Jul-01 13:33N 37°49' W 122°19'0 0.0
2015-Jul-01 12:33N 37°49' W 122°19'2 1.9
2015-Jul-01 11:33N 37°49' W 122°21'7 7.4
2015-Jul-01 10:33N 37°55' W 122°25'1 1.2
2015-Jul-01 09:33N 37°54' W 122°24'2 1.7
2015-Jul-01 08:33N 37°55' W 122°22'0 0.0
2015-Jul-01 07:33N 37°55' W 122°22'0 0.0
2015-Jul-01 06:33N 37°55' W 122°22'0 0.0
2015-Jul-01 05:33N 37°55' W 122°22'0 0.0
2015-Jul-01 04:33N 37°55' W 122°22'2 2.3
2015-Jul-01 03:33N 37°55' W 122°25'0 0.3
2015-Jul-01 02:33N 37°55' W 122°25'7 7.3
2015-Jul-01 01:33N 37°48' W 122°22'1 1.4
2015-Jul-01 00:33N 37°48' W 122°21'2 1.5
2015-Jun-30 23:33N 37°48' W 122°19'0 0.1
2015-Jun-30 22:33N 37°48' W 122°19'6 6.5
2015-Jun-30 21:33N 37°53' W 122°24'3 3.0
2015-Jun-30 20:33N 37°55' W 122°22'0 0.0
2015-Jun-30 19:33N 37°55' W 122°22'0 0.0
2015-Jun-30 18:33N 37°55' W 122°22'3 2.5
2015-Jun-30 17:33N 37°55' W 122°25'2 2.5
2015-Jun-30 16:33N 37°55' W 122°22'0 0.0
2015-Jun-30 15:33N 37°55' W 122°22'0 0.0
2015-Jun-30 14:33N 37°55' W 122°22'0 0.0
2015-Jun-30 13:33N 37°55' W 122°22'0 0.0
2015-Jun-30 12:33N 37°55' W 122°22'0 0.0
2015-Jun-30 11:33N 37°55' W 122°22'0 0.2
2015-Jun-30 10:34N 37°55' W 122°22'2 2.1
2015-Jun-30 09:33N 37°55' W 122°24'1 1.0
2015-Jun-30 08:33N 37°54' W 122°23'1 1.3
2015-Jun-30 07:33N 37°55' W 122°25'8 7.4
2015-Jun-30 06:31N 38°02' W 122°21'4 4.1
2015-Jun-30 05:33N 38°03' W 122°16'1 1.1
2015-Jun-30 04:33N 38°03' W 122°17'1 1.3
2015-Jun-30 03:33N 38°03' W 122°16'8 7.6
2015-Jun-30 02:33N 38°00' W 122°24'6 5.9
2015-Jun-30 01:33N 37°55' W 122°22'1 0.7
2015-Jun-30 00:33N 37°54' W 122°23'2 1.8
2015-Jun-29 23:33N 37°55' W 122°25'2 2.4
2015-Jun-29 22:33N 37°55' W 122°22'4 3.9
2015-Jun-29 21:33N 37°57' W 122°26'6 1.4
2015-Jun-29 17:23N 38°02' W 122°22'810.2
2015-Jun-29 16:34N 37°54' W 122°26'9 9.4
2015-Jun-29 15:33N 37°46' W 122°21'1 0.9
2015-Jun-29 14:33N 37°45' W 122°20'5 4.7
2015-Jun-29 13:33N 37°49' W 122°19'0 0.0
2015-Jun-29 12:33N 37°49' W 122°19'0 0.0
2015-Jun-29 11:33N 37°49' W 122°19'0 0.0
2015-Jun-29 10:33N 37°49' W 122°19'0 0.0
2015-Jun-29 09:33N 37°49' W 122°19'0 0.0
2015-Jun-29 08:33N 37°49' W 122°19'1 0.8
2015-Jun-29 07:33N 37°49' W 122°20'1 0.5
2015-Jun-29 06:33N 37°49' W 122°19'0 0.3
2015-Jun-29 05:33N 37°49' W 122°19'1 0.5
2015-Jun-29 04:33N 37°49' W 122°19'4 4.1
2015-Jun-29 03:33N 37°45' W 122°22'1 0.7
2015-Jun-29 02:33N 37°45' W 122°21'5 4.6
2015-Jun-29 01:33N 37°49' W 122°19'0 0.0
2015-Jun-29 00:33N 37°49' W 122°19'0 0.0
2015-Jun-28 23:33N 37°49' W 122°19'0 0.0
2015-Jun-28 22:33N 37°49' W 122°19'0 0.0
2015-Jun-28 21:33N 37°49' W 122°19'0 0.0
2015-Jun-28 20:33N 37°49' W 122°19'2 1.5
2015-Jun-28 19:33N 37°49' W 122°20'3 2.5
2015-Jun-28 18:33N 37°48' W 122°17'2 2.5
2015-Jun-28 17:33N 37°48' W 122°20'3 2.7
2015-Jun-28 16:33N 37°45' W 122°21'7 7.3
2015-Jun-28 15:33N 37°52' W 122°25'3 3.3
2015-Jun-28 14:33N 37°56' W 122°25'0 0.1
2015-Jun-28 13:33N 37°56' W 122°25'8 7.7
2015-Jun-28 12:33N 37°49' W 122°21'2 2.0
2015-Jun-28 11:33N 37°49' W 122°19'0 0.0
2015-Jun-28 10:33N 37°49' W 122°19'0 0.0
2015-Jun-28 09:33N 37°49' W 122°19'0 0.0
2015-Jun-28 08:33N 37°49' W 122°19'0 0.0
2015-Jun-28 07:33N 37°49' W 122°19'0 0.0
2015-Jun-28 06:33N 37°49' W 122°19'0 0.0
2015-Jun-28 05:33N 37°49' W 122°19'0 0.0
2015-Jun-28 04:33N 37°49' W 122°19'1 0.9
2015-Jun-28 03:34N 37°49' W 122°19'2 1.6
2015-Jun-28 02:33N 37°48' W 122°21'2 1.6
2015-Jun-28 01:33N 37°49' W 122°19'0 0.1
2015-Jun-28 00:33N 37°49' W 122°20'0 0.2
2015-Jun-27 23:33N 37°49' W 122°19'1 0.9
2015-Jun-27 22:33N 37°48' W 122°19'1 1.3
2015-Jun-27 21:33N 37°48' W 122°21'2 1.5
2015-Jun-27 20:34N 37°48' W 122°22'1 1.2
2015-Jun-27 19:33N 37°48' W 122°24'4 4.4
2015-Jun-27 18:33N 37°49' W 122°29'4 4.0
2015-Jun-27 17:34N 37°51' W 122°25'7 7.5
2015-Jun-27 16:33N 37°58' W 122°26'9 8.7
2015-Jun-27 15:33N 38°03' W 122°17'8 5.3
2015-Jun-27 14:07N 38°02' W 122°08'0 0.0
2015-Jun-27 04:19N 38°02' W 122°08'0 0.4
2015-Jun-27 03:27N 38°02' W 122°08'4 4.5
2015-Jun-27 02:28N 38°04' W 122°13'8 8.3
2015-Jun-27 01:33N 38°02' W 122°22'9 9.0
2015-Jun-27 00:33N 37°53' W 122°26'6 6.3
2015-Jun-26 23:34N 37°48' W 122°30'4 3.5
2015-Jun-26 22:34N 37°49' W 122°26'5 5.5
2015-Jun-26 21:34N 37°49' W 122°19'0 0.0
2015-Jun-26 20:33N 37°49' W 122°19'0 0.0
2015-Jun-26 19:34N 37°49' W 122°19'0 0.0
2015-Jun-26 18:33N 37°49' W 122°19'0 0.0
2015-Jun-26 17:34N 37°49' W 122°19'0 0.0
2015-Jun-26 16:34N 37°49' W 122°19'0 0.0
2015-Jun-26 15:33N 37°49' W 122°19'3 2.7
2015-Jun-26 14:34N 37°50' W 122°22'6 6.0
2015-Jun-26 13:33N 37°56' W 122°25'0 0.0
2015-Jun-26 12:33N 37°56' W 122°25'8 7.8
2015-Jun-26 11:33N 37°48' W 122°21'2 1.9
2015-Jun-26 10:34N 37°49' W 122°19'0 0.0
2015-Jun-26 09:33N 37°49' W 122°19'0 0.0
2015-Jun-26 08:34N 37°49' W 122°19'0 0.0
2015-Jun-26 07:34N 37°49' W 122°19'0 0.0
2015-Jun-26 06:34N 37°49' W 122°19'0 0.0
2015-Jun-26 05:34N 37°49' W 122°19'0 0.0
2015-Jun-26 04:34N 37°49' W 122°19'0 0.0
2015-Jun-26 03:34N 37°49' W 122°19'0 0.0
2015-Jun-26 02:34N 37°49' W 122°19'4 4.5
2015-Jun-26 01:34N 37°45' W 122°21'7 7.0
2015-Jun-26 00:33N 37°49' W 122°29'1 1.5
2015-Jun-25 23:34N 37°49' W 122°27'6 6.4
2015-Jun-25 22:33N 37°49' W 122°19'0 0.0
2015-Jun-25 21:34N 37°49' W 122°19'0 0.0
2015-Jun-25 20:33N 37°49' W 122°19'0 0.0
2015-Jun-25 19:33N 37°49' W 122°19'0 0.0
2015-Jun-25 18:34N 37°49' W 122°19'0 0.0
2015-Jun-25 17:34N 37°49' W 122°19'0 0.0
2015-Jun-25 16:34N 37°49' W 122°19'  

Dump ship's entire track history